sensor_id;sensor_type;location;lat;lon;timestamp;pressure;altitude;pressure_sealevel;temperature;humidity
75089;BME280;63673;49.928;8.150;2023-08-07T00:00:01;987.78;;;12.31;100
75089;BME280;63673;49.928;8.150;2023-08-07T00:01:03;987.81;;;12.31;100
75089;BME280;63673;49.928;8.150;2023-08-07T00:02:05;987.82;;;12.31;100
75089;BME280;63673;49.928;8.150;2023-08-07T00:03:06;987.79;;;12.31;100
75089;BME280;63673;49.928;8.150;2023-08-07T00:04:08;987.82;;;12.31;100
75089;BME280;63673;49.928;8.150;2023-08-07T00:05:10;987.83;;;12.3;100
75089;BME280;63673;49.928;8.150;2023-08-07T00:06:11;987.79;;;12.31;100
75089;BME280;63673;49.928;8.150;2023-08-07T00:07:13;987.8;;;12.3;100
75089;BME280;63673;49.928;8.150;2023-08-07T00:08:15;987.85;;;12.3;100
75089;BME280;63673;49.928;8.150;2023-08-07T00:09:17;987.84;;;12.31;100
75089;BME280;63673;49.928;8.150;2023-08-07T00:10:18;987.88;;;12.31;100
75089;BME280;63673;49.928;8.150;2023-08-07T00:11:20;987.87;;;12.3;100
75089;BME280;63673;49.928;8.150;2023-08-07T00:12:22;987.92;;;12.31;100
75089;BME280;63673;49.928;8.150;2023-08-07T00:13:24;987.89;;;12.31;100
75089;BME280;63673;49.928;8.150;2023-08-07T00:14:25;987.86;;;12.31;100
75089;BME280;63673;49.928;8.150;2023-08-07T00:15:27;987.85;;;12.3;100
75089;BME280;63673;49.928;8.150;2023-08-07T00:16:29;987.88;;;12.3;100
75089;BME280;63673;49.928;8.150;2023-08-07T00:17:31;987.92;;;12.29;100
75089;BME280;63673;49.928;8.150;2023-08-07T00:18:32;987.9;;;12.28;100
75089;BME280;63673;49.928;8.150;2023-08-07T00:19:34;987.84;;;12.28;100
75089;BME280;63673;49.928;8.150;2023-08-07T00:20:36;987.88;;;12.28;100
75089;BME280;63673;49.928;8.150;2023-08-07T00:21:37;987.88;;;12.28;100
75089;BME280;63673;49.928;8.150;2023-08-07T00:22:39;987.9;;;12.28;100
75089;BME280;63673;49.928;8.150;2023-08-07T00:23:41;987.86;;;12.28;100
75089;BME280;63673;49.928;8.150;2023-08-07T00:24:43;987.94;;;12.27;100
75089;BME280;63673;49.928;8.150;2023-08-07T00:25:44;987.92;;;12.27;100
75089;BME280;63673;49.928;8.150;2023-08-07T00:26:46;987.87;;;12.27;100
75089;BME280;63673;49.928;8.150;2023-08-07T00:27:48;987.93;;;12.27;100
75089;BME280;63673;49.928;8.150;2023-08-07T00:28:50;987.91;;;12.27;100
75089;BME280;63673;49.928;8.150;2023-08-07T00:29:51;987.92;;;12.27;100
75089;BME280;63673;49.928;8.150;2023-08-07T00:30:53;987.95;;;12.27;100
75089;BME280;63673;49.928;8.150;2023-08-07T00:31:55;987.91;;;12.26;100
75089;BME280;63673;49.928;8.150;2023-08-07T00:32:56;987.88;;;12.27;100
75089;BME280;63673;49.928;8.150;2023-08-07T00:33:58;987.92;;;12.26;100
75089;BME280;63673;49.928;8.150;2023-08-07T00:35:00;987.89;;;12.26;100
75089;BME280;63673;49.928;8.150;2023-08-07T00:36:02;987.9;;;12.26;100
75089;BME280;63673;49.928;8.150;2023-08-07T00:37:04;987.85;;;12.26;100
75089;BME280;63673;49.928;8.150;2023-08-07T00:38:05;987.89;;;12.27;100
75089;BME280;63673;49.928;8.150;2023-08-07T00:39:07;987.92;;;12.27;100
75089;BME280;63673;49.928;8.150;2023-08-07T00:40:09;987.94;;;12.26;100
75089;BME280;63673;49.928;8.150;2023-08-07T00:41:10;987.94;;;12.26;100
75089;BME280;63673;49.928;8.150;2023-08-07T00:42:12;987.92;;;12.27;100
75089;BME280;63673;49.928;8.150;2023-08-07T00:43:14;987.92;;;12.27;100
75089;BME280;63673;49.928;8.150;2023-08-07T00:44:16;987.94;;;12.27;100
75089;BME280;63673;49.928;8.150;2023-08-07T00:45:17;987.9;;;12.26;100
75089;BME280;63673;49.928;8.150;2023-08-07T00:46:19;987.93;;;12.27;100
75089;BME280;63673;49.928;8.150;2023-08-07T00:47:21;987.93;;;12.26;100
75089;BME280;63673;49.928;8.150;2023-08-07T00:48:22;987.93;;;12.26;100
75089;BME280;63673;49.928;8.150;2023-08-07T00:49:24;987.91;;;12.26;100
75089;BME280;63673;49.928;8.150;2023-08-07T00:50:26;987.9;;;12.26;100
75089;BME280;63673;49.928;8.150;2023-08-07T00:51:28;987.9;;;12.26;100
75089;BME280;63673;49.928;8.150;2023-08-07T00:52:29;987.83;;;12.26;100
75089;BME280;63673;49.928;8.150;2023-08-07T00:53:31;987.91;;;12.26;100
75089;BME280;63673;49.928;8.150;2023-08-07T00:54:33;987.92;;;12.26;100
75089;BME280;63673;49.928;8.150;2023-08-07T00:55:35;987.92;;;12.26;100
75089;BME280;63673;49.928;8.150;2023-08-07T00:56:36;987.9;;;12.25;100
75089;BME280;63673;49.928;8.150;2023-08-07T00:57:38;987.91;;;12.25;100
75089;BME280;63673;49.928;8.150;2023-08-07T00:58:40;987.94;;;12.25;100
75089;BME280;63673;49.928;8.150;2023-08-07T00:59:42;987.94;;;12.24;100
75089;BME280;63673;49.928;8.150;2023-08-07T01:00:43;987.88;;;12.24;100
75089;BME280;63673;49.928;8.150;2023-08-07T01:01:45;987.9;;;12.24;100
75089;BME280;63673;49.928;8.150;2023-08-07T01:02:47;987.95;;;12.24;100
75089;BME280;63673;49.928;8.150;2023-08-07T01:03:48;987.92;;;12.23;100
75089;BME280;63673;49.928;8.150;2023-08-07T01:04:50;987.93;;;12.24;100
75089;BME280;63673;49.928;8.150;2023-08-07T01:05:52;987.92;;;12.24;100
75089;BME280;63673;49.928;8.150;2023-08-07T01:06:54;987.92;;;12.24;100
75089;BME280;63673;49.928;8.150;2023-08-07T01:07:55;987.93;;;12.24;100
75089;BME280;63673;49.928;8.150;2023-08-07T01:08:57;987.93;;;12.23;100
75089;BME280;63673;49.928;8.150;2023-08-07T01:09:59;987.97;;;12.23;100
75089;BME280;63673;49.928;8.150;2023-08-07T01:11:05;987.97;;;12.23;100
75089;BME280;63673;49.928;8.150;2023-08-07T01:12:06;987.97;;;12.23;100
75089;BME280;63673;49.928;8.150;2023-08-07T01:13:05;988.01;;;12.22;100
75089;BME280;63673;49.928;8.150;2023-08-07T01:14:08;987.97;;;12.22;100
75089;BME280;63673;49.928;8.150;2023-08-07T01:15:10;987.95;;;12.23;100
75089;BME280;63673;49.928;8.150;2023-08-07T01:16:10;987.98;;;12.23;100
75089;BME280;63673;49.928;8.150;2023-08-07T01:17:13;987.96;;;12.22;100
75089;BME280;63673;49.928;8.150;2023-08-07T01:18:13;987.98;;;12.23;100
75089;BME280;63673;49.928;8.150;2023-08-07T01:19:17;987.99;;;12.23;100
75089;BME280;63673;49.928;8.150;2023-08-07T01:20:16;987.98;;;12.24;100
75089;BME280;63673;49.928;8.150;2023-08-07T01:21:18;987.95;;;12.24;100
75089;BME280;63673;49.928;8.150;2023-08-07T01:22:20;987.96;;;12.24;100
75089;BME280;63673;49.928;8.150;2023-08-07T01:23:21;987.98;;;12.24;100
75089;BME280;63673;49.928;8.150;2023-08-07T01:24:23;987.99;;;12.24;100
75089;BME280;63673;49.928;8.150;2023-08-07T01:25:25;988;;;12.23;100
75089;BME280;63673;49.928;8.150;2023-08-07T01:26:26;987.98;;;12.23;100
75089;BME280;63673;49.928;8.150;2023-08-07T01:27:30;988.04;;;12.22;100
75089;BME280;63673;49.928;8.150;2023-08-07T01:28:31;987.95;;;12.23;100
75089;BME280;63673;49.928;8.150;2023-08-07T01:29:33;988.02;;;12.23;100
75089;BME280;63673;49.928;8.150;2023-08-07T01:30:35;987.97;;;12.23;100
75089;BME280;63673;49.928;8.150;2023-08-07T01:31:35;987.97;;;12.23;100
75089;BME280;63673;49.928;8.150;2023-08-07T01:32:39;987.99;;;12.23;100
75089;BME280;63673;49.928;8.150;2023-08-07T01:33:40;988.02;;;12.23;100
75089;BME280;63673;49.928;8.150;2023-08-07T01:34:40;987.99;;;12.24;100
75089;BME280;63673;49.928;8.150;2023-08-07T01:35:43;988.01;;;12.23;100
75089;BME280;63673;49.928;8.150;2023-08-07T01:36:44;988.03;;;12.24;100
75089;BME280;63673;49.928;8.150;2023-08-07T01:37:45;988.05;;;12.24;100
75089;BME280;63673;49.928;8.150;2023-08-07T01:38:47;988;;;12.23;100
75089;BME280;63673;49.928;8.150;2023-08-07T01:39:49;988.01;;;12.23;100
75089;BME280;63673;49.928;8.150;2023-08-07T01:40:51;988.03;;;12.24;100
75089;BME280;63673;49.928;8.150;2023-08-07T01:41:53;988.01;;;12.23;100
75089;BME280;63673;49.928;8.150;2023-08-07T01:42:54;988.01;;;12.24;100
75089;BME280;63673;49.928;8.150;2023-08-07T01:43:56;988.04;;;12.23;100
75089;BME280;63673;49.928;8.150;2023-08-07T01:44:58;988;;;12.24;100
75089;BME280;63673;49.928;8.150;2023-08-07T01:45:59;988.02;;;12.22;100
75089;BME280;63673;49.928;8.150;2023-08-07T01:47:01;988.02;;;12.23;100
75089;BME280;63673;49.928;8.150;2023-08-07T01:48:03;988.09;;;12.23;100
75089;BME280;63673;49.928;8.150;2023-08-07T01:49:04;988.07;;;12.23;100
75089;BME280;63673;49.928;8.150;2023-08-07T01:50:06;988.04;;;12.22;100
75089;BME280;63673;49.928;8.150;2023-08-07T01:51:08;988.1;;;12.22;100
75089;BME280;63673;49.928;8.150;2023-08-07T01:52:10;988.07;;;12.21;100
75089;BME280;63673;49.928;8.150;2023-08-07T01:53:11;988.07;;;12.22;100
75089;BME280;63673;49.928;8.150;2023-08-07T01:54:13;988.07;;;12.22;100
75089;BME280;63673;49.928;8.150;2023-08-07T01:55:15;988.16;;;12.21;100
75089;BME280;63673;49.928;8.150;2023-08-07T01:56:17;988.1;;;12.21;100
75089;BME280;63673;49.928;8.150;2023-08-07T01:57:18;988.06;;;12.2;100
75089;BME280;63673;49.928;8.150;2023-08-07T01:58:20;988.12;;;12.21;100
75089;BME280;63673;49.928;8.150;2023-08-07T01:59:22;988.1;;;12.2;100
75089;BME280;63673;49.928;8.150;2023-08-07T02:00:24;988.08;;;12.2;100
75089;BME280;63673;49.928;8.150;2023-08-07T02:01:25;988.11;;;12.2;100
75089;BME280;63673;49.928;8.150;2023-08-07T02:02:27;988.13;;;12.19;100
75089;BME280;63673;49.928;8.150;2023-08-07T02:03:29;988.09;;;12.2;100
75089;BME280;63673;49.928;8.150;2023-08-07T02:04:30;988.1;;;12.18;100
75089;BME280;63673;49.928;8.150;2023-08-07T02:05:32;988.11;;;12.18;100
75089;BME280;63673;49.928;8.150;2023-08-07T02:06:34;988.1;;;12.19;100
75089;BME280;63673;49.928;8.150;2023-08-07T02:07:36;988.08;;;12.18;100
75089;BME280;63673;49.928;8.150;2023-08-07T02:08:38;988.1;;;12.18;100
75089;BME280;63673;49.928;8.150;2023-08-07T02:09:39;988.12;;;12.18;100
75089;BME280;63673;49.928;8.150;2023-08-07T02:10:41;988.1;;;12.18;100
75089;BME280;63673;49.928;8.150;2023-08-07T02:11:43;988.11;;;12.18;100
75089;BME280;63673;49.928;8.150;2023-08-07T02:12:44;988.16;;;12.17;100
75089;BME280;63673;49.928;8.150;2023-08-07T02:13:46;988.15;;;12.17;100
75089;BME280;63673;49.928;8.150;2023-08-07T02:14:48;988.06;;;12.17;100
75089;BME280;63673;49.928;8.150;2023-08-07T02:15:50;988.11;;;12.16;100
75089;BME280;63673;49.928;8.150;2023-08-07T02:16:51;988.13;;;12.15;100
75089;BME280;63673;49.928;8.150;2023-08-07T02:17:53;988.11;;;12.15;100
75089;BME280;63673;49.928;8.150;2023-08-07T02:18:55;988.15;;;12.14;100
75089;BME280;63673;49.928;8.150;2023-08-07T02:19:56;988.13;;;12.13;100
75089;BME280;63673;49.928;8.150;2023-08-07T02:20:58;988.16;;;12.13;100
75089;BME280;63673;49.928;8.150;2023-08-07T02:22:00;988.15;;;12.13;100
75089;BME280;63673;49.928;8.150;2023-08-07T02:23:02;988.2;;;12.12;100
75089;BME280;63673;49.928;8.150;2023-08-07T02:24:04;988.13;;;12.12;100
75089;BME280;63673;49.928;8.150;2023-08-07T02:25:05;988.12;;;12.11;100
75089;BME280;63673;49.928;8.150;2023-08-07T02:26:07;988.16;;;12.1;100
75089;BME280;63673;49.928;8.150;2023-08-07T02:27:09;988.15;;;12.1;100
75089;BME280;63673;49.928;8.150;2023-08-07T02:28:10;988.19;;;12.09;100
75089;BME280;63673;49.928;8.150;2023-08-07T02:29:12;988.18;;;12.08;100
75089;BME280;63673;49.928;8.150;2023-08-07T02:30:14;988.23;;;12.08;100
75089;BME280;63673;49.928;8.150;2023-08-07T02:31:16;988.25;;;12.09;100
75089;BME280;63673;49.928;8.150;2023-08-07T02:32:17;988.14;;;12.07;100
75089;BME280;63673;49.928;8.150;2023-08-07T02:33:19;988.14;;;12.08;100
75089;BME280;63673;49.928;8.150;2023-08-07T02:34:21;988.16;;;12.07;100
75089;BME280;63673;49.928;8.150;2023-08-07T02:35:22;988.23;;;12.07;100
75089;BME280;63673;49.928;8.150;2023-08-07T02:36:26;988.23;;;12.07;100
75089;BME280;63673;49.928;8.150;2023-08-07T02:37:26;988.2;;;12.07;100
75089;BME280;63673;49.928;8.150;2023-08-07T02:38:28;988.1;;;12.08;100
75089;BME280;63673;49.928;8.150;2023-08-07T02:39:29;988.14;;;12.07;100
75089;BME280;63673;49.928;8.150;2023-08-07T02:40:31;988.11;;;12.07;100
75089;BME280;63673;49.928;8.150;2023-08-07T02:41:33;988.12;;;12.07;100
75089;BME280;63673;49.928;8.150;2023-08-07T02:42:35;988.19;;;12.06;100
75089;BME280;63673;49.928;8.150;2023-08-07T02:43:36;988.21;;;12.07;100
75089;BME280;63673;49.928;8.150;2023-08-07T02:44:38;988.15;;;12.06;100
75089;BME280;63673;49.928;8.150;2023-08-07T02:45:40;988.19;;;12.07;100
75089;BME280;63673;49.928;8.150;2023-08-07T02:46:42;988.14;;;12.06;100
75089;BME280;63673;49.928;8.150;2023-08-07T02:47:43;988.16;;;12.06;100
75089;BME280;63673;49.928;8.150;2023-08-07T02:48:45;988.11;;;12.06;100
75089;BME280;63673;49.928;8.150;2023-08-07T02:49:47;988.25;;;12.05;100
75089;BME280;63673;49.928;8.150;2023-08-07T02:50:48;988.25;;;12.06;100
75089;BME280;63673;49.928;8.150;2023-08-07T02:51:50;988.26;;;12.05;100
75089;BME280;63673;49.928;8.150;2023-08-07T02:52:52;988.24;;;12.06;100
75089;BME280;63673;49.928;8.150;2023-08-07T02:53:54;988.18;;;12.06;100
75089;BME280;63673;49.928;8.150;2023-08-07T02:54:55;988.17;;;12.07;100
75089;BME280;63673;49.928;8.150;2023-08-07T02:55:57;988.13;;;12.07;100
75089;BME280;63673;49.928;8.150;2023-08-07T02:56:59;988.18;;;12.06;100
75089;BME280;63673;49.928;8.150;2023-08-07T02:58:01;988.2;;;12.07;100
75089;BME280;63673;49.928;8.150;2023-08-07T02:59:02;988.23;;;12.07;100
75089;BME280;63673;49.928;8.150;2023-08-07T03:00:04;988.25;;;12.07;100
75089;BME280;63673;49.928;8.150;2023-08-07T03:01:06;988.2;;;12.07;100
75089;BME280;63673;49.928;8.150;2023-08-07T03:02:07;988.18;;;12.07;100
75089;BME280;63673;49.928;8.150;2023-08-07T03:03:09;988.2;;;12.07;100
75089;BME280;63673;49.928;8.150;2023-08-07T03:04:11;988.14;;;12.07;100
75089;BME280;63673;49.928;8.150;2023-08-07T03:05:13;988.2;;;12.07;100
75089;BME280;63673;49.928;8.150;2023-08-07T03:06:14;988.24;;;12.08;100
75089;BME280;63673;49.928;8.150;2023-08-07T03:07:16;988.21;;;12.07;100
75089;BME280;63673;49.928;8.150;2023-08-07T03:08:18;988.22;;;12.07;100
75089;BME280;63673;49.928;8.150;2023-08-07T03:09:20;988.27;;;12.07;100
75089;BME280;63673;49.928;8.150;2023-08-07T03:10:21;988.26;;;12.07;100
75089;BME280;63673;49.928;8.150;2023-08-07T03:11:23;988.21;;;12.07;100
75089;BME280;63673;49.928;8.150;2023-08-07T03:12:25;988.25;;;12.08;100
75089;BME280;63673;49.928;8.150;2023-08-07T03:13:26;988.18;;;12.08;100
75089;BME280;63673;49.928;8.150;2023-08-07T03:14:28;988.27;;;12.08;100
75089;BME280;63673;49.928;8.150;2023-08-07T03:15:30;988.29;;;12.09;100
75089;BME280;63673;49.928;8.150;2023-08-07T03:16:32;988.32;;;12.09;100
75089;BME280;63673;49.928;8.150;2023-08-07T03:17:33;988.35;;;12.09;100
75089;BME280;63673;49.928;8.150;2023-08-07T03:18:35;988.37;;;12.09;100
75089;BME280;63673;49.928;8.150;2023-08-07T03:19:37;988.31;;;12.1;100
75089;BME280;63673;49.928;8.150;2023-08-07T03:20:39;988.4;;;12.1;100
75089;BME280;63673;49.928;8.150;2023-08-07T03:21:40;988.45;;;12.1;100
75089;BME280;63673;49.928;8.150;2023-08-07T03:22:42;988.3;;;12.09;100
75089;BME280;63673;49.928;8.150;2023-08-07T03:23:44;988.42;;;12.11;100
75089;BME280;63673;49.928;8.150;2023-08-07T03:24:46;988.39;;;12.11;100
75089;BME280;63673;49.928;8.150;2023-08-07T03:25:47;988.41;;;12.11;100
75089;BME280;63673;49.928;8.150;2023-08-07T03:26:49;988.47;;;12.1;100
75089;BME280;63673;49.928;8.150;2023-08-07T03:27:51;988.41;;;12.09;100
75089;BME280;63673;49.928;8.150;2023-08-07T03:28:52;988.36;;;12.1;100
75089;BME280;63673;49.928;8.150;2023-08-07T03:29:54;988.35;;;12.1;100
75089;BME280;63673;49.928;8.150;2023-08-07T03:30:56;988.42;;;12.09;100
75089;BME280;63673;49.928;8.150;2023-08-07T03:31:58;988.36;;;12.1;100
75089;BME280;63673;49.928;8.150;2023-08-07T03:32:59;988.44;;;12.1;100
75089;BME280;63673;49.928;8.150;2023-08-07T03:34:01;988.46;;;12.09;100
75089;BME280;63673;49.928;8.150;2023-08-07T03:35:03;988.43;;;12.1;100
75089;BME280;63673;49.928;8.150;2023-08-07T03:36:05;988.47;;;12.1;100
75089;BME280;63673;49.928;8.150;2023-08-07T03:37:06;988.44;;;12.1;100
75089;BME280;63673;49.928;8.150;2023-08-07T03:38:08;988.45;;;12.1;100
75089;BME280;63673;49.928;8.150;2023-08-07T03:39:10;988.44;;;12.08;100
75089;BME280;63673;49.928;8.150;2023-08-07T03:40:12;988.4;;;12.1;100
75089;BME280;63673;49.928;8.150;2023-08-07T03:41:13;988.43;;;12.09;100
75089;BME280;63673;49.928;8.150;2023-08-07T03:42:15;988.37;;;12.08;100
75089;BME280;63673;49.928;8.150;2023-08-07T03:43:17;988.35;;;12.09;100
75089;BME280;63673;49.928;8.150;2023-08-07T03:44:18;988.36;;;12.1;100
75089;BME280;63673;49.928;8.150;2023-08-07T03:45:20;988.39;;;12.1;100
75089;BME280;63673;49.928;8.150;2023-08-07T03:46:22;988.35;;;12.1;100
75089;BME280;63673;49.928;8.150;2023-08-07T03:47:24;988.34;;;12.1;100
75089;BME280;63673;49.928;8.150;2023-08-07T03:48:25;988.39;;;12.1;100
75089;BME280;63673;49.928;8.150;2023-08-07T03:49:27;988.41;;;12.1;100
75089;BME280;63673;49.928;8.150;2023-08-07T03:50:29;988.49;;;12.1;100
75089;BME280;63673;49.928;8.150;2023-08-07T03:51:31;988.43;;;12.11;100
75089;BME280;63673;49.928;8.150;2023-08-07T03:52:32;988.33;;;12.11;100
75089;BME280;63673;49.928;8.150;2023-08-07T03:53:34;988.39;;;12.11;100
75089;BME280;63673;49.928;8.150;2023-08-07T03:54:36;988.4;;;12.11;100
75089;BME280;63673;49.928;8.150;2023-08-07T03:55:37;988.39;;;12.11;100
75089;BME280;63673;49.928;8.150;2023-08-07T03:56:39;988.44;;;12.12;100
75089;BME280;63673;49.928;8.150;2023-08-07T03:57:41;988.39;;;12.11;100
75089;BME280;63673;49.928;8.150;2023-08-07T03:58:43;988.41;;;12.11;100
75089;BME280;63673;49.928;8.150;2023-08-07T03:59:44;988.4;;;12.12;100
75089;BME280;63673;49.928;8.150;2023-08-07T04:00:46;988.4;;;12.11;100
75089;BME280;63673;49.928;8.150;2023-08-07T04:01:48;988.38;;;12.11;100
75089;BME280;63673;49.928;8.150;2023-08-07T04:02:50;988.5;;;12.11;100
75089;BME280;63673;49.928;8.150;2023-08-07T04:03:51;988.41;;;12.09;100
75089;BME280;63673;49.928;8.150;2023-08-07T04:04:53;988.35;;;12.09;100
75089;BME280;63673;49.928;8.150;2023-08-07T04:05:55;988.34;;;12.1;100
75089;BME280;63673;49.928;8.150;2023-08-07T04:06:57;988.42;;;12.09;100
75089;BME280;63673;49.928;8.150;2023-08-07T04:07:58;988.4;;;12.09;100
75089;BME280;63673;49.928;8.150;2023-08-07T04:09:00;988.41;;;12.08;100
75089;BME280;63673;49.928;8.150;2023-08-07T04:10:02;988.41;;;12.08;100
75089;BME280;63673;49.928;8.150;2023-08-07T04:11:04;988.48;;;12.07;100
75089;BME280;63673;49.928;8.150;2023-08-07T04:12:06;988.38;;;12.08;100
75089;BME280;63673;49.928;8.150;2023-08-07T04:13:07;988.35;;;12.08;100
75089;BME280;63673;49.928;8.150;2023-08-07T04:14:09;988.41;;;12.08;100
75089;BME280;63673;49.928;8.150;2023-08-07T04:15:10;988.33;;;12.07;100
75089;BME280;63673;49.928;8.150;2023-08-07T04:16:12;988.36;;;12.07;100
75089;BME280;63673;49.928;8.150;2023-08-07T04:17:14;988.33;;;12.07;100
75089;BME280;63673;49.928;8.150;2023-08-07T04:18:16;988.29;;;12.07;100
75089;BME280;63673;49.928;8.150;2023-08-07T04:19:17;988.28;;;12.07;100
75089;BME280;63673;49.928;8.150;2023-08-07T04:20:19;988.34;;;12.06;100
75089;BME280;63673;49.928;8.150;2023-08-07T04:21:21;988.32;;;12.06;100
75089;BME280;63673;49.928;8.150;2023-08-07T04:22:23;988.37;;;12.05;100
75089;BME280;63673;49.928;8.150;2023-08-07T04:23:24;988.31;;;12.05;100
75089;BME280;63673;49.928;8.150;2023-08-07T04:24:26;988.23;;;12.04;100
75089;BME280;63673;49.928;8.150;2023-08-07T04:25:28;988.27;;;12.04;100
75089;BME280;63673;49.928;8.150;2023-08-07T04:26:29;988.25;;;12.03;100
75089;BME280;63673;49.928;8.150;2023-08-07T04:27:31;988.28;;;12.03;100
75089;BME280;63673;49.928;8.150;2023-08-07T04:28:33;988.28;;;12.02;100
75089;BME280;63673;49.928;8.150;2023-08-07T04:29:35;988.33;;;12.01;100
75089;BME280;63673;49.928;8.150;2023-08-07T04:30:36;988.41;;;12.02;100
75089;BME280;63673;49.928;8.150;2023-08-07T04:31:38;988.35;;;12.01;100
75089;BME280;63673;49.928;8.150;2023-08-07T04:32:40;988.26;;;12;100
75089;BME280;63673;49.928;8.150;2023-08-07T04:33:42;988.31;;;12;100
75089;BME280;63673;49.928;8.150;2023-08-07T04:34:43;988.3;;;12;100
75089;BME280;63673;49.928;8.150;2023-08-07T04:35:45;988.25;;;11.99;100
75089;BME280;63673;49.928;8.150;2023-08-07T04:36:47;988.3;;;11.99;100
75089;BME280;63673;49.928;8.150;2023-08-07T04:37:49;988.31;;;11.99;100
75089;BME280;63673;49.928;8.150;2023-08-07T04:38:50;988.29;;;11.99;100
75089;BME280;63673;49.928;8.150;2023-08-07T04:39:52;988.34;;;11.99;100
75089;BME280;63673;49.928;8.150;2023-08-07T04:40:54;988.36;;;11.99;100
75089;BME280;63673;49.928;8.150;2023-08-07T04:41:55;988.3;;;11.99;100
75089;BME280;63673;49.928;8.150;2023-08-07T04:42:57;988.32;;;11.99;100
75089;BME280;63673;49.928;8.150;2023-08-07T04:43:59;988.3;;;11.99;100
75089;BME280;63673;49.928;8.150;2023-08-07T04:45:01;988.29;;;11.99;100
75089;BME280;63673;49.928;8.150;2023-08-07T04:46:02;988.31;;;12;100
75089;BME280;63673;49.928;8.150;2023-08-07T04:47:04;988.35;;;12;100
75089;BME280;63673;49.928;8.150;2023-08-07T04:48:06;988.31;;;12;100
75089;BME280;63673;49.928;8.150;2023-08-07T04:49:08;988.35;;;12;100
75089;BME280;63673;49.928;8.150;2023-08-07T04:50:09;988.33;;;12.01;100
75089;BME280;63673;49.928;8.150;2023-08-07T04:51:11;988.35;;;12.01;100
75089;BME280;63673;49.928;8.150;2023-08-07T04:52:13;988.43;;;12.01;100
75089;BME280;63673;49.928;8.150;2023-08-07T04:53:15;988.37;;;12.01;100
75089;BME280;63673;49.928;8.150;2023-08-07T04:54:16;988.45;;;12.02;100
75089;BME280;63673;49.928;8.150;2023-08-07T04:55:18;988.46;;;12.02;100
75089;BME280;63673;49.928;8.150;2023-08-07T04:56:20;988.44;;;12.02;100
75089;BME280;63673;49.928;8.150;2023-08-07T04:57:21;988.54;;;12.03;100
75089;BME280;63673;49.928;8.150;2023-08-07T04:58:23;988.49;;;12.03;100
75089;BME280;63673;49.928;8.150;2023-08-07T04:59:25;988.52;;;12.02;100
75089;BME280;63673;49.928;8.150;2023-08-07T05:00:27;988.53;;;12.03;100
75089;BME280;63673;49.928;8.150;2023-08-07T05:01:28;988.53;;;12.03;100
75089;BME280;63673;49.928;8.150;2023-08-07T05:02:30;988.47;;;12.04;100
75089;BME280;63673;49.928;8.150;2023-08-07T05:03:32;988.52;;;12.04;100
75089;BME280;63673;49.928;8.150;2023-08-07T05:04:34;988.51;;;12.04;100
75089;BME280;63673;49.928;8.150;2023-08-07T05:05:35;988.54;;;12.04;100
75089;BME280;63673;49.928;8.150;2023-08-07T05:06:37;988.54;;;12.05;100
75089;BME280;63673;49.928;8.150;2023-08-07T05:07:39;988.54;;;12.05;100
75089;BME280;63673;49.928;8.150;2023-08-07T05:08:41;988.57;;;12.05;100
75089;BME280;63673;49.928;8.150;2023-08-07T05:09:42;988.57;;;12.05;100
75089;BME280;63673;49.928;8.150;2023-08-07T05:10:44;988.64;;;12.06;100
75089;BME280;63673;49.928;8.150;2023-08-07T05:11:46;988.54;;;12.06;100
75089;BME280;63673;49.928;8.150;2023-08-07T05:12:47;988.58;;;12.06;100
75089;BME280;63673;49.928;8.150;2023-08-07T05:13:49;988.61;;;12.06;100
75089;BME280;63673;49.928;8.150;2023-08-07T05:14:51;988.63;;;12.08;100
75089;BME280;63673;49.928;8.150;2023-08-07T05:15:53;988.67;;;12.07;100
75089;BME280;63673;49.928;8.150;2023-08-07T05:16:54;988.65;;;12.08;100
75089;BME280;63673;49.928;8.150;2023-08-07T05:17:56;988.69;;;12.08;100
75089;BME280;63673;49.928;8.150;2023-08-07T05:18:58;988.67;;;12.09;100
75089;BME280;63673;49.928;8.150;2023-08-07T05:20:00;988.66;;;12.09;100
75089;BME280;63673;49.928;8.150;2023-08-07T05:21:01;988.68;;;12.1;100
75089;BME280;63673;49.928;8.150;2023-08-07T05:22:03;988.69;;;12.1;100
75089;BME280;63673;49.928;8.150;2023-08-07T05:23:05;988.68;;;12.09;100
75089;BME280;63673;49.928;8.150;2023-08-07T05:24:07;988.7;;;12.11;100
75089;BME280;63673;49.928;8.150;2023-08-07T05:25:08;988.73;;;12.11;100
75089;BME280;63673;49.928;8.150;2023-08-07T05:26:10;988.8;;;12.11;100
75089;BME280;63673;49.928;8.150;2023-08-07T05:27:12;988.71;;;12.11;100
75089;BME280;63673;49.928;8.150;2023-08-07T05:28:13;988.71;;;12.12;100
75089;BME280;63673;49.928;8.150;2023-08-07T05:29:15;988.76;;;12.12;100
75089;BME280;63673;49.928;8.150;2023-08-07T05:30:17;988.77;;;12.12;100
75089;BME280;63673;49.928;8.150;2023-08-07T05:31:19;988.73;;;12.13;100
75089;BME280;63673;49.928;8.150;2023-08-07T05:32:20;988.7;;;12.13;100
75089;BME280;63673;49.928;8.150;2023-08-07T05:33:22;988.77;;;12.13;100
75089;BME280;63673;49.928;8.150;2023-08-07T05:34:24;988.76;;;12.13;100
75089;BME280;63673;49.928;8.150;2023-08-07T05:35:26;988.75;;;12.14;100
75089;BME280;63673;49.928;8.150;2023-08-07T05:36:27;988.8;;;12.14;100
75089;BME280;63673;49.928;8.150;2023-08-07T05:37:29;988.77;;;12.14;100
75089;BME280;63673;49.928;8.150;2023-08-07T05:38:31;988.8;;;12.14;100
75089;BME280;63673;49.928;8.150;2023-08-07T05:39:33;988.77;;;12.14;100
75089;BME280;63673;49.928;8.150;2023-08-07T05:40:34;988.81;;;12.14;100
75089;BME280;63673;49.928;8.150;2023-08-07T05:41:36;988.78;;;12.14;100
75089;BME280;63673;49.928;8.150;2023-08-07T05:42:38;988.81;;;12.13;100
75089;BME280;63673;49.928;8.150;2023-08-07T05:43:39;988.77;;;12.13;100
75089;BME280;63673;49.928;8.150;2023-08-07T05:44:41;988.8;;;12.12;100
75089;BME280;63673;49.928;8.150;2023-08-07T05:45:43;988.85;;;12.13;100
75089;BME280;63673;49.928;8.150;2023-08-07T05:46:45;988.81;;;12.12;100